createdAt,value
2017-12-02T00:00:14.294Z,83.98
2017-12-02T00:02:45.365Z,83.96
2017-12-02T00:05:16.351Z,83.86
2017-12-02T00:10:50.480Z,83.62
2017-12-02T00:13:20.085Z,83.65
2017-12-02T00:15:49.408Z,83.69
2017-12-02T00:18:17.882Z,83.63
2017-12-02T00:20:46.337Z,83.68
2017-12-02T00:23:14.800Z,83.36
2017-12-02T00:25:43.196Z,83.26
2017-12-02T00:28:11.705Z,83.08
2017-12-02T00:30:40.081Z,82.97
2017-12-02T00:33:08.512Z,82.61
2017-12-02T00:35:36.969Z,82.64
2017-12-02T00:38:06.124Z,82.54
2017-12-02T00:40:34.613Z,82.15
2017-12-02T00:43:03.029Z,82.24
2017-12-02T00:45:31.489Z,82.30
2017-12-02T00:47:59.929Z,82.24
2017-12-02T00:50:29.272Z,82.22
2017-12-02T00:52:57.656Z,82.26
2017-12-02T00:55:26.476Z,82.26
2017-12-02T00:57:55.640Z,81.70
2017-12-02T01:00:24.488Z,81.63
2017-12-02T01:02:52.969Z,81.37
2017-12-02T01:05:21.384Z,81.17
2017-12-02T01:07:49.809Z,81.28
2017-12-02T01:10:18.319Z,81.33
2017-12-02T01:12:47.489Z,81.43
2017-12-02T01:15:17.068Z,81.44
2017-12-02T01:17:45.520Z,81.50
2017-12-02T01:20:14.348Z,81.43
2017-12-02T01:22:42.792Z,81.40
2017-12-02T01:25:12.028Z,81.41
2017-12-02T01:27:40.824Z,81.38
2017-12-02T01:30:09.296Z,81.62
2017-12-02T01:32:37.688Z,81.90
2017-12-02T01:35:07.302Z,82.21
2017-12-02T01:37:35.765Z,82.38
2017-12-02T01:40:04.197Z,82.49
2017-12-02T01:42:32.616Z,82.39
2017-12-02T01:45:02.400Z,82.23
2017-12-02T01:47:30.812Z,82.07
2017-12-02T01:49:59.634Z,81.96
2017-12-02T01:52:28.020Z,82.02
2017-12-02T01:54:56.485Z,81.96
2017-12-02T01:57:25.465Z,82.00
2017-12-02T01:59:54.706Z,81.79
2017-12-02T02:02:23.252Z,81.77
2017-12-02T02:04:51.694Z,81.44
2017-12-02T02:07:20.096Z,81.48
2017-12-02T02:09:48.595Z,81.60
2017-12-02T02:12:17.025Z,81.58
2017-12-02T02:14:46.248Z,81.55
2017-12-02T02:17:14.951Z,80.97
2017-12-02T02:19:43.371Z,80.63
2017-12-02T02:22:13.048Z,80.35
2017-12-02T02:24:41.988Z,80.03
2017-12-02T02:27:10.416Z,80.09
2017-12-02T02:29:38.864Z,80.20
2017-12-02T02:32:07.276Z,80.31
2017-12-02T02:34:35.682Z,80.26
2017-12-02T02:37:04.177Z,80.34
2017-12-02T02:39:32.599Z,80.22
2017-12-02T02:42:00.999Z,80.17
2017-12-02T02:44:30.137Z,80.29
2017-12-02T02:46:58.506Z,80.25
2017-12-02T02:49:26.916Z,80.19
2017-12-02T02:51:56.034Z,80.09
2017-12-02T02:54:24.461Z,80.28
2017-12-02T02:56:52.855Z,80.30
2017-12-02T02:59:21.615Z,80.40
2017-12-02T03:01:50.044Z,80.54
2017-12-02T03:04:18.431Z,80.47
2017-12-02T03:06:47.232Z,80.47
2017-12-02T03:09:15.628Z,80.44
2017-12-02T03:11:44.835Z,80.36
2017-12-02T03:14:14.035Z,80.00
2017-12-02T03:16:42.419Z,79.74
2017-12-02T03:19:10.828Z,79.83
2017-12-02T03:21:39.175Z,79.82
2017-12-02T03:24:07.554Z,80.07
2017-12-02T03:26:35.976Z,80.11
2017-12-02T03:29:04.339Z,80.13
2017-12-02T03:31:33.131Z,80.11
2017-12-02T03:34:01.551Z,80.03
2017-12-02T03:36:29.951Z,79.83
2017-12-02T03:38:58.327Z,79.90
2017-12-02T03:41:26.755Z,79.86
2017-12-02T03:43:55.187Z,79.61
2017-12-02T03:46:24.347Z,79.79
2017-12-02T03:48:53.139Z,79.78
2017-12-02T03:51:22.675Z,79.76
2017-12-02T03:53:51.831Z,79.54
2017-12-02T03:56:20.251Z,79.48
2017-12-02T03:58:48.647Z,79.26
2017-12-02T04:01:17.026Z,78.90
2017-12-02T04:03:45.439Z,78.37
2017-12-02T04:06:13.872Z,78.27
2017-12-02T04:08:42.291Z,78.29
2017-12-02T04:11:10.655Z,78.64
2017-12-02T04:13:39.819Z,78.73
2017-12-02T04:16:08.959Z,78.66
2017-12-02T04:18:37.339Z,78.57
2017-12-02T04:21:06.540Z,78.66
2017-12-02T04:23:34.911Z,78.41
2017-12-02T04:26:04.075Z,78.27
2017-12-02T04:28:32.535Z,78.30
2017-12-02T04:31:01.679Z,78.25
2017-12-02T04:33:30.103Z,78.56
2017-12-02T04:35:58.531Z,78.66
2017-12-02T04:38:26.899Z,78.73
2017-12-02T04:40:55.322Z,78.72
2017-12-02T04:43:24.471Z,78.55
2017-12-02T04:45:52.886Z,78.96
2017-12-02T04:48:21.296Z,79.55
2017-12-02T04:50:49.654Z,79.56
2017-12-02T04:53:18.067Z,79.60
2017-12-02T04:55:46.835Z,79.42
2017-12-02T04:58:15.255Z,79.41
2017-12-02T05:00:43.662Z,79.01
2017-12-02T05:03:12.054Z,78.89
2017-12-02T05:05:40.471Z,78.34
2017-12-02T05:08:08.887Z,78.32
2017-12-02T05:10:38.103Z,78.58
2017-12-02T05:13:07.302Z,78.71
2017-12-02T05:15:35.738Z,78.62
2017-12-02T05:18:04.163Z,78.39
2017-12-02T05:20:32.563Z,78.23
2017-12-02T05:23:00.978Z,77.97
2017-12-02T05:25:29.835Z,78.02
2017-12-02T05:27:58.207Z,78.04
2017-12-02T05:30:26.578Z,78.36
2017-12-02T05:32:55.066Z,78.82
2017-12-02T05:35:24.612Z,78.92
2017-12-02T05:37:53.012Z,78.92
2017-12-02T05:40:22.326Z,78.66
2017-12-02T05:42:51.542Z,78.01
2017-12-02T05:45:20.006Z,77.13
2017-12-02T05:47:50.267Z,77.10
2017-12-02T05:50:18.666Z,77.29
2017-12-02T05:52:47.070Z,77.45
2017-12-02T05:55:15.874Z,77.77
2017-12-02T05:57:44.290Z,77.72
2017-12-02T06:00:12.700Z,77.91
2017-12-02T06:02:41.070Z,77.94
2017-12-02T06:05:09.890Z,78.15
2017-12-02T06:07:38.273Z,78.10
2017-12-02T06:10:06.754Z,78.19
2017-12-02T06:12:35.130Z,78.48
2017-12-02T06:15:03.503Z,78.73
2017-12-02T06:17:32.620Z,78.66
2017-12-02T06:20:01.002Z,78.76
2017-12-02T06:22:30.135Z,78.81
2017-12-02T06:24:58.550Z,79.00
2017-12-02T06:27:27.389Z,79.18
2017-12-02T06:29:55.782Z,78.98
2017-12-02T06:32:24.930Z,79.01
2017-12-02T06:34:53.319Z,79.56
2017-12-02T06:37:24.045Z,79.82
2017-12-02T06:39:53.594Z,79.91
2017-12-02T06:42:21.978Z,80.03
2017-12-02T06:44:50.394Z,80.13
2017-12-02T06:47:18.817Z,79.86
2017-12-02T06:49:47.922Z,79.84
2017-12-02T06:52:16.394Z,79.61
2017-12-02T06:54:45.149Z,79.34
2017-12-02T06:57:13.526Z,79.26
2017-12-02T06:59:41.942Z,79.27
2017-12-02T07:02:10.766Z,79.33
2017-12-02T07:04:39.173Z,79.35
2017-12-02T07:07:07.579Z,79.24
2017-12-02T07:09:35.918Z,79.68
2017-12-02T07:12:05.034Z,79.62
2017-12-02T07:14:33.465Z,79.53
2017-12-02T07:17:02.253Z,79.17
2017-12-02T07:19:31.541Z,79.11
2017-12-02T07:22:00.423Z,79.05
2017-12-02T07:24:29.453Z,79.07
2017-12-02T07:26:58.632Z,79.06
2017-12-02T07:29:27.773Z,79.08
2017-12-02T07:31:56.303Z,79.03
2017-12-02T07:34:24.649Z,78.98
2017-12-02T07:36:53.465Z,79.02
2017-12-02T07:39:22.628Z,78.96
2017-12-02T07:41:50.965Z,78.96
2017-12-02T07:44:20.089Z,78.89
2017-12-02T07:46:49.837Z,79.32
2017-12-02T07:49:18.217Z,79.31
2017-12-02T07:51:47.402Z,79.07
2017-12-02T07:54:16.517Z,78.89
2017-12-02T07:56:46.418Z,78.89
2017-12-02T07:59:16.340Z,78.72
2017-12-02T08:01:44.953Z,78.37
2017-12-02T08:04:14.113Z,78.31
2017-12-02T08:06:42.474Z,78.44
2017-12-02T08:09:10.875Z,78.50
2017-12-02T08:11:39.249Z,78.48
2017-12-02T08:14:07.706Z,78.54
2017-12-02T08:16:36.856Z,78.66
2017-12-02T08:19:06.024Z,78.62
2017-12-02T08:21:34.829Z,78.67
2017-12-02T08:24:03.961Z,78.54
2017-12-02T08:26:32.389Z,78.32
2017-12-02T08:29:01.123Z,78.47
2017-12-02T08:31:29.453Z,78.84
2017-12-02T08:33:58.593Z,78.90
2017-12-02T08:36:27.377Z,78.73
2017-12-02T08:38:55.765Z,78.52
2017-12-02T08:41:25.494Z,78.48
2017-12-02T08:43:53.905Z,78.32
2017-12-02T08:46:23.065Z,78.07
2017-12-02T08:48:53.034Z,78.03
2017-12-02T08:51:21.445Z,78.00
2017-12-02T08:53:49.796Z,77.88
2017-12-02T08:56:18.197Z,77.76
2017-12-02T08:58:46.580Z,77.38
2017-12-02T09:01:14.947Z,77.30
2017-12-02T09:03:43.354Z,77.57
2017-12-02T09:06:11.716Z,77.65
2017-12-02T09:08:40.514Z,77.28
2017-12-02T09:11:08.893Z,78.13
2017-12-02T09:13:37.320Z,77.98
2017-12-02T09:16:05.776Z,77.72
2017-12-02T09:18:34.180Z,77.58
2017-12-02T09:21:02.568Z,77.49
2017-12-02T09:23:30.983Z,77.39
2017-12-02T09:25:59.345Z,77.29
2017-12-02T09:28:27.853Z,77.58
2017-12-02T09:30:56.228Z,78.23
2017-12-02T09:33:25.361Z,78.16
2017-12-02T09:35:53.741Z,78.59
2017-12-02T09:38:22.117Z,78.84
2017-12-02T09:40:52.024Z,78.85
2017-12-02T09:43:20.817Z,78.52
2017-12-02T09:45:50.181Z,77.99
2017-12-02T09:48:19.684Z,77.65
2017-12-02T09:50:48.820Z,77.33
2017-12-02T09:53:17.220Z,77.19
2017-12-02T09:55:46.390Z,76.91
2017-12-02T09:58:14.744Z,76.66
2017-12-02T10:00:43.168Z,76.74
2017-12-02T10:03:12.318Z,76.94
2017-12-02T10:05:41.480Z,76.57
2017-12-02T10:08:10.296Z,76.37
2017-12-02T10:10:39.836Z,76.37
2017-12-02T10:13:08.216Z,76.34
2017-12-02T10:15:36.604Z,76.43
2017-12-02T10:18:05.004Z,76.57
2017-12-02T10:20:34.164Z,76.80
2017-12-02T10:23:02.548Z,77.04
2017-12-02T10:25:30.921Z,76.88
2017-12-02T10:27:59.328Z,76.86
2017-12-02T10:30:27.732Z,76.86
2017-12-02T10:32:56.560Z,76.81
2017-12-02T10:35:24.908Z,76.54
2017-12-02T10:37:53.304Z,76.39
2017-12-02T10:40:22.440Z,76.28
2017-12-02T10:42:50.920Z,75.88
2017-12-02T10:45:19.396Z,75.72
2017-12-02T10:47:48.514Z,75.74
2017-12-02T10:50:16.956Z,75.59
2017-12-02T10:52:45.368Z,75.45
2017-12-02T10:55:14.205Z,75.35
2017-12-02T10:57:42.676Z,75.16
2017-12-02T11:00:11.116Z,75.46
2017-12-02T11:02:40.227Z,75.39
2017-12-02T11:05:08.640Z,75.21
2017-12-02T11:07:37.025Z,75.08
2017-12-02T11:10:05.507Z,74.79
2017-12-02T11:12:33.865Z,74.29
2017-12-02T11:15:02.596Z,74.10
2017-12-02T11:17:31.775Z,74.11
2017-12-02T11:20:00.125Z,74.10
2017-12-02T11:22:28.476Z,73.48
2017-12-02T11:24:57.656Z,73.93
2017-12-02T11:27:26.035Z,74.04
2017-12-02T11:29:54.452Z,74.42
2017-12-02T11:32:22.888Z,73.96
2017-12-02T11:34:52.043Z,73.69
2017-12-02T11:37:20.384Z,74.06
2017-12-02T11:39:49.536Z,73.50
2017-12-02T11:42:17.963Z,73.57
2017-12-02T11:44:47.127Z,73.74
2017-12-02T11:47:17.051Z,73.90
2017-12-02T11:49:46.172Z,74.34
2017-12-02T11:52:14.952Z,74.76
2017-12-02T11:54:43.295Z,75.21
2017-12-02T11:57:11.734Z,75.33
2017-12-02T11:59:40.947Z,75.61
2017-12-02T12:02:10.164Z,75.87
2017-12-02T12:04:38.535Z,76.82
2017-12-02T12:07:08.039Z,77.12
2017-12-02T12:09:38.680Z,77.57
2017-12-02T12:12:07.177Z,78.51
2017-12-02T12:14:41.514Z,78.15
2017-12-02T12:17:10.679Z,78.10
2017-12-02T12:19:39.072Z,77.74
2017-12-02T12:22:11.602Z,77.97
2017-12-02T12:24:43.571Z,77.71
2017-12-02T12:27:12.866Z,77.21
2017-12-02T12:29:42.595Z,76.63
2017-12-02T12:32:13.019Z,76.35
2017-12-02T12:34:45.148Z,75.93
2017-12-02T12:37:18.811Z,75.61
2017-12-02T12:39:50.015Z,75.58
2017-12-02T12:42:18.523Z,75.55
2017-12-02T12:44:46.915Z,75.38
2017-12-02T12:47:16.878Z,75.26
2017-12-02T12:49:45.306Z,75.31
2017-12-02T12:52:13.715Z,75.47
2017-12-02T12:54:42.735Z,75.70
2017-12-02T12:57:12.036Z,75.94
2017-12-02T12:59:42.678Z,76.08
2017-12-02T13:02:11.039Z,75.95
2017-12-02T13:04:40.223Z,75.89
2017-12-02T13:07:08.751Z,76.12
2017-12-02T13:09:39.305Z,76.09
2017-12-02T13:12:09.183Z,76.05
2017-12-02T13:14:38.023Z,75.60
2017-12-02T13:17:06.795Z,75.43
2017-12-02T13:19:35.604Z,75.09
2017-12-02T13:22:05.375Z,74.90
2017-12-02T13:24:33.783Z,74.41
2017-12-02T13:27:02.543Z,74.65
2017-12-02T13:29:31.687Z,74.60
2017-12-02T13:32:00.095Z,75.00
2017-12-02T13:34:28.503Z,75.20
2017-12-02T13:36:58.051Z,75.08
2017-12-02T13:39:27.355Z,75.37
2017-12-02T13:41:58.339Z,75.61
2017-12-02T13:44:31.687Z,75.54
2017-12-02T13:47:00.095Z,75.85
2017-12-02T13:49:29.252Z,75.97
2017-12-02T13:51:58.420Z,75.58
2017-12-02T13:54:27.937Z,75.84
2017-12-02T13:56:57.075Z,75.61
2017-12-02T13:59:25.447Z,75.56
2017-12-02T14:01:53.818Z,75.69
2017-12-02T14:04:22.226Z,75.90
2017-12-02T14:06:53.122Z,76.03
2017-12-02T14:09:23.942Z,75.92
2017-12-02T14:11:53.382Z,75.57
2017-12-02T14:14:26.726Z,75.47
2017-12-02T14:16:55.910Z,75.69
2017-12-02T14:19:33.539Z,75.81
2017-12-02T14:22:03.459Z,75.98
2017-12-02T14:24:37.530Z,76.14
2017-12-02T14:27:06.003Z,76.12
2017-12-02T14:29:35.156Z,76.55
2017-12-02T14:32:04.913Z,76.70
2017-12-02T14:34:37.566Z,77.23
2017-12-02T14:37:05.950Z,77.45
2017-12-02T14:39:36.646Z,77.37
2017-12-02T14:42:06.242Z,77.20
2017-12-02T14:44:40.678Z,76.84
2017-12-02T14:47:09.145Z,76.66
2017-12-02T14:49:37.710Z,76.99
2017-12-02T14:52:07.438Z,77.18
2017-12-02T14:58:35.974Z,77.71
2017-12-02T15:01:06.254Z,77.98
2017-12-02T15:03:41.354Z,78.31
2017-12-02T15:06:09.775Z,78.71
2017-12-02T15:08:39.018Z,78.93
2017-12-02T15:11:18.858Z,78.82
2017-12-02T15:13:48.069Z,79.60
2017-12-02T15:16:17.646Z,79.57
2017-12-02T15:18:46.269Z,79.57
2017-12-02T15:21:16.108Z,79.59
2017-12-02T15:23:45.337Z,79.54
2017-12-02T15:26:15.166Z,79.52
2017-12-02T15:28:43.570Z,79.37
2017-12-02T15:31:12.810Z,79.28
2017-12-02T15:33:46.609Z,79.56
2017-12-02T15:36:16.721Z,79.51
2017-12-02T15:38:46.630Z,79.49
2017-12-02T15:41:17.106Z,80.03
2017-12-02T15:43:49.206Z,80.58
2017-12-02T15:46:17.639Z,81.04
2017-12-02T15:48:45.997Z,81.51
2017-12-02T15:51:15.109Z,81.48
2017-12-02T15:53:43.707Z,82.01
2017-12-02T15:56:12.974Z,82.34
2017-12-02T15:58:42.705Z,82.62
2017-12-02T16:01:12.218Z,82.86
2017-12-02T16:03:40.717Z,83.07
2017-12-02T16:06:13.881Z,83.35
2017-12-02T16:08:45.645Z,83.28
2017-12-02T16:11:18.101Z,82.91
2017-12-02T16:13:46.900Z,82.91
2017-12-02T16:16:17.785Z,82.86
2017-12-02T16:18:46.333Z,82.95
2017-12-02T16:21:17.753Z,83.41
2017-12-02T16:23:47.694Z,83.41
2017-12-02T16:26:18.938Z,83.28
2017-12-02T16:28:47.371Z,83.27
2017-12-02T16:31:16.665Z,83.33
2017-12-02T16:33:45.473Z,83.28
2017-12-02T16:36:15.903Z,83.28
2017-12-02T16:38:45.028Z,83.40
2017-12-02T16:41:16.989Z,83.44
2017-12-02T16:43:47.789Z,83.39
2017-12-02T16:46:16.729Z,83.47
2017-12-02T16:48:45.102Z,83.54
2017-12-02T16:51:13.621Z,83.57
2017-12-02T16:53:42.433Z,83.59
2017-12-02T16:56:11.769Z,83.73
2017-12-02T16:58:40.202Z,83.71
2017-12-02T17:01:09.429Z,83.58
2017-12-02T17:03:37.897Z,83.60
2017-12-02T17:06:07.088Z,83.55
2017-12-02T17:08:36.416Z,83.75
2017-12-02T17:11:04.973Z,83.80
2017-12-02T17:13:34.829Z,83.59
2017-12-02T17:16:04.057Z,83.46
2017-12-02T17:18:33.181Z,83.45
2017-12-02T17:21:01.624Z,83.47
2017-12-02T17:23:30.009Z,83.37
2017-12-02T17:25:58.433Z,83.58
2017-12-02T17:28:28.092Z,83.61
2017-12-02T17:30:57.436Z,83.75
2017-12-02T17:33:26.616Z,84.00
2017-12-02T17:35:55.806Z,84.30
2017-12-02T17:38:24.746Z,84.38
2017-12-02T17:40:53.270Z,84.63
2017-12-02T17:43:21.692Z,84.84
2017-12-02T17:45:50.317Z,85.07
2017-12-02T17:48:19.722Z,85.28
2017-12-02T17:50:48.100Z,85.33
2017-12-02T17:53:17.282Z,85.35
2017-12-02T17:55:45.764Z,85.39
2017-12-02T17:58:21.534Z,85.38
2017-12-02T18:00:50.046Z,85.46
2017-12-02T18:03:19.920Z,85.62
2017-12-02T18:05:49.716Z,85.74
2017-12-02T18:08:18.992Z,85.84
2017-12-02T18:10:47.378Z,85.82
2017-12-02T18:13:16.202Z,85.75
2017-12-02T18:15:44.577Z,85.72
2017-12-02T18:18:13.326Z,85.46
2017-12-02T18:20:42.466Z,85.27
2017-12-02T18:23:11.268Z,85.19
2017-12-02T18:25:40.062Z,85.00
2017-12-02T18:28:08.848Z,84.78
2017-12-02T18:30:38.188Z,84.75
2017-12-02T18:33:06.612Z,84.81
2017-12-02T18:35:34.972Z,84.85
2017-12-02T18:38:03.484Z,84.93
2017-12-02T18:40:32.648Z,85.11
2017-12-02T18:43:01.038Z,85.24
2017-12-02T18:45:30.720Z,85.40
2017-12-02T18:48:00.784Z,85.41
2017-12-02T18:50:32.806Z,85.42
2017-12-02T18:53:04.748Z,85.39
2017-12-02T18:55:34.121Z,85.35
2017-12-02T18:58:02.549Z,85.34
2017-12-02T19:00:31.313Z,85.25
2017-12-02T19:02:59.681Z,85.04
2017-12-02T19:05:28.928Z,84.96
2017-12-02T19:07:58.028Z,84.98
2017-12-02T19:10:26.436Z,85.00
2017-12-02T19:12:56.293Z,85.00
2017-12-02T19:15:24.704Z,85.04
2017-12-02T19:17:54.451Z,85.16
2017-12-02T19:20:24.377Z,85.03
2017-12-02T19:22:53.565Z,84.96
2017-12-02T19:25:23.546Z,85.01
2017-12-02T19:27:52.373Z,85.06
2017-12-02T19:30:21.500Z,85.08
2017-12-02T19:32:49.868Z,85.02
2017-12-02T19:35:20.284Z,85.00
2017-12-02T19:37:49.387Z,85.07
2017-12-02T19:40:17.771Z,85.24
2017-12-02T19:42:47.513Z,85.35
2017-12-02T19:45:15.872Z,85.23
2017-12-02T19:47:45.624Z,85.38
2017-12-02T19:50:14.387Z,85.33
2017-12-02T19:52:42.742Z,85.40
2017-12-02T19:55:11.152Z,85.44
2017-12-02T19:57:40.012Z,85.44
2017-12-02T20:00:08.447Z,85.26
2017-12-02T20:02:38.219Z,85.02
2017-12-02T20:05:10.168Z,84.99
2017-12-02T20:07:38.560Z,84.94
2017-12-02T20:10:07.951Z,84.71
2017-12-02T20:12:37.691Z,84.52
2017-12-02T20:15:06.882Z,84.32
2017-12-02T20:17:36.092Z,84.26
2017-12-02T20:20:04.488Z,84.21
2017-12-02T20:22:34.432Z,84.14
2017-12-02T20:25:02.835Z,84.15
2017-12-02T20:27:32.135Z,84.06
2017-12-02T20:30:00.491Z,84.01
2017-12-02T20:32:29.612Z,84.23
2017-12-02T20:34:58.727Z,84.20
2017-12-02T20:37:28.211Z,84.14
2017-12-02T20:39:56.667Z,84.05
2017-12-02T20:42:25.802Z,83.99
2017-12-02T20:44:55.047Z,84.04
2017-12-02T20:47:23.407Z,84.01
2017-12-02T20:49:51.851Z,84.07
2017-12-02T20:52:20.671Z,84.09
2017-12-02T20:54:49.151Z,83.98
2017-12-02T20:57:17.551Z,84.00
2017-12-02T20:59:45.967Z,83.99
2017-12-02T21:02:14.451Z,83.91
2017-12-02T21:04:43.736Z,83.92
2017-12-02T21:07:12.103Z,83.92
2017-12-02T21:09:40.803Z,83.93
2017-12-02T21:12:09.175Z,84.01
2017-12-02T21:14:37.983Z,84.19
2017-12-02T21:17:06.818Z,84.07
2017-12-02T21:19:36.188Z,84.37
2017-12-02T21:22:06.106Z,84.35
2017-12-02T21:24:34.558Z,84.28
2017-12-02T21:27:02.942Z,84.02
2017-12-02T21:29:32.323Z,84.00
2017-12-02T21:32:00.683Z,83.99
2017-12-02T21:34:29.887Z,84.01
2017-12-02T21:36:58.278Z,84.13
2017-12-02T21:39:29.259Z,84.23
2017-12-02T21:41:59.371Z,84.20
2017-12-02T21:44:30.739Z,84.28
2017-12-02T21:47:00.167Z,84.18
2017-12-02T21:49:29.774Z,84.09
2017-12-02T21:51:58.172Z,84.02
2017-12-02T21:54:28.326Z,83.99
2017-12-02T21:56:57.291Z,83.94
2017-12-02T21:59:26.994Z,83.92
2017-12-02T22:01:56.086Z,83.81
2017-12-02T22:04:25.601Z,83.78
2017-12-02T22:06:55.294Z,83.85
2017-12-02T22:09:26.379Z,83.85
2017-12-02T22:15:01.722Z,83.93
2017-12-02T22:17:32.338Z,83.84
2017-12-02T22:20:06.559Z,83.91
2017-12-02T22:22:38.720Z,83.86
2017-12-02T22:25:07.255Z,84.20
2017-12-02T22:27:36.360Z,84.42
2017-12-02T22:30:07.042Z,84.48
2017-12-02T22:32:35.696Z,84.26
2017-12-02T22:35:04.044Z,84.10
2017-12-02T22:37:33.218Z,84.28
2017-12-02T22:40:01.575Z,84.23
2017-12-02T22:42:30.016Z,84.24
2017-12-02T22:44:59.499Z,84.21
2017-12-02T22:47:27.874Z,84.37
2017-12-02T22:49:56.364Z,84.38
2017-12-02T22:52:24.716Z,84.51
2017-12-02T22:54:53.122Z,84.44
2017-12-02T22:57:22.278Z,84.34
2017-12-02T22:59:50.638Z,84.37
2017-12-02T23:02:18.988Z,84.39
2017-12-02T23:04:48.057Z,84.40
2017-12-02T23:07:17.902Z,84.51
2017-12-02T23:09:46.302Z,84.51
2017-12-02T23:12:14.678Z,84.56
2017-12-02T23:14:43.462Z,84.57
2017-12-02T23:17:11.904Z,84.51
2017-12-02T23:19:41.074Z,84.46
2017-12-02T23:22:09.469Z,84.42
2017-12-02T23:24:37.866Z,84.85
2017-12-02T23:27:06.617Z,85.21
2017-12-02T23:29:34.941Z,85.38
2017-12-02T23:32:03.722Z,85.39
2017-12-02T23:34:33.193Z,85.50
2017-12-02T23:37:01.973Z,85.52
2017-12-02T23:39:30.349Z,85.46
2017-12-02T23:41:58.690Z,85.50
2017-12-02T23:44:27.017Z,85.65
2017-12-02T23:46:55.406Z,85.83
2017-12-02T23:49:23.809Z,85.84
2017-12-02T23:51:52.575Z,85.98
2017-12-02T23:54:21.740Z,86.09
2017-12-02T23:56:50.913Z,86.23
2017-12-02T23:59:19.253Z,85.99
